createdAt,value
2023-12-23T00:03:22.850Z,7.45
2023-12-23T00:05:27.809Z,7.41
2023-12-23T00:07:30.472Z,7.41
2023-12-23T00:09:33.095Z,7.40
2023-12-23T00:11:36.329Z,7.38
2023-12-23T00:13:39.861Z,7.38
2023-12-23T00:15:42.714Z,7.40
2023-12-23T00:17:49.369Z,7.41
2023-12-23T00:19:53.322Z,7.40
2023-12-23T00:23:57.560Z,7.41
2023-12-23T00:26:00.159Z,7.40
2023-12-23T00:28:05.989Z,7.40
2023-12-23T00:30:09.489Z,7.41
2023-12-23T00:32:14.710Z,7.42
2023-12-23T00:34:17.963Z,7.43
2023-12-23T00:36:21.030Z,7.41
2023-12-23T00:38:26.819Z,7.40
2023-12-23T00:40:30.835Z,7.38
2023-12-23T00:42:33.429Z,7.37
2023-12-23T00:44:36.322Z,7.39
2023-12-23T00:46:39.031Z,7.41
2023-12-23T00:48:41.884Z,7.43
2023-12-23T00:50:44.568Z,7.46
2023-12-23T00:52:47.275Z,7.49
2023-12-23T00:54:51.167Z,7.51
2023-12-23T00:56:53.928Z,7.52
2023-12-23T00:58:57.772Z,7.50
2023-12-23T01:01:00.554Z,7.48
2023-12-23T01:03:04.629Z,7.47
2023-12-23T01:05:10.428Z,7.47
2023-12-23T01:07:13.169Z,7.47
2023-12-23T01:09:15.656Z,7.46
2023-12-23T01:11:18.569Z,7.42
2023-12-23T01:13:21.863Z,7.40
2023-12-23T01:15:24.338Z,7.37
2023-12-23T01:17:27.087Z,7.35
2023-12-23T01:19:30.975Z,7.36
2023-12-23T01:21:33.508Z,7.37
2023-12-23T01:23:36.200Z,7.38
2023-12-23T01:25:38.982Z,7.39
2023-12-23T01:27:42.648Z,7.39
2023-12-23T01:29:46.336Z,7.40
2023-12-23T01:31:51.559Z,7.40
2023-12-23T01:33:54.594Z,7.39
2023-12-23T01:35:57.773Z,7.37
2023-12-23T01:38:04.014Z,7.33
2023-12-23T01:40:08.854Z,7.32
2023-12-23T01:42:13.666Z,7.29
2023-12-23T01:44:16.234Z,7.28
2023-12-23T01:46:19.649Z,7.27
2023-12-23T01:48:24.410Z,7.23
2023-12-23T01:50:28.800Z,7.26
2023-12-23T01:52:33.835Z,7.27
2023-12-23T01:54:41.300Z,7.27
2023-12-23T01:56:49.660Z,7.23
2023-12-23T01:58:53.150Z,7.21
2023-12-23T02:00:57.420Z,7.20
2023-12-23T02:03:01.320Z,7.18
2023-12-23T02:05:06.068Z,7.21
2023-12-23T02:07:09.358Z,7.23
2023-12-23T02:09:12.396Z,7.24
2023-12-23T02:11:53.310Z,7.25
2023-12-23T02:14:30.174Z,7.25
2023-12-23T02:16:32.990Z,7.23
2023-12-23T02:18:36.135Z,7.25
2023-12-23T02:20:38.912Z,7.27
2023-12-23T02:22:41.762Z,7.27
2023-12-23T02:24:44.580Z,7.23
2023-12-23T02:28:57.729Z,7.20
2023-12-23T02:31:01.451Z,7.19
2023-12-23T02:33:05.226Z,7.15
2023-12-23T02:35:09.668Z,7.13
2023-12-23T02:37:12.256Z,7.14
2023-12-23T02:39:15.534Z,7.14
2023-12-23T02:41:19.268Z,7.12
2023-12-23T02:43:21.880Z,7.10
2023-12-23T02:45:25.127Z,7.09
2023-12-23T02:47:28.633Z,7.07
2023-12-23T02:49:31.320Z,7.05
2023-12-23T02:51:33.980Z,7.07
2023-12-23T02:53:37.601Z,7.08
2023-12-23T02:55:40.284Z,7.06
2023-12-23T02:57:43.333Z,7.05
2023-12-23T02:59:45.942Z,7.06
2023-12-23T03:01:48.463Z,7.10
2023-12-23T03:03:51.313Z,7.09
2023-12-23T03:05:55.712Z,7.12
2023-12-23T03:07:58.450Z,7.13
2023-12-23T03:10:04.110Z,7.14
2023-12-23T03:12:09.574Z,7.16
2023-12-23T03:14:12.607Z,7.16
2023-12-23T03:16:18.333Z,7.18
2023-12-23T03:18:21.201Z,7.19
2023-12-23T03:20:24.502Z,7.21
2023-12-23T03:22:27.162Z,7.21
2023-12-23T03:24:29.694Z,7.21
2023-12-23T03:26:32.552Z,7.23
2023-12-23T03:28:36.248Z,7.26
2023-12-23T03:30:39.011Z,7.30
2023-12-23T03:32:43.288Z,7.30
2023-12-23T03:34:46.777Z,7.32
2023-12-23T03:36:50.126Z,7.31
2023-12-23T03:38:53.381Z,7.34
2023-12-23T03:40:56.230Z,7.34
2023-12-23T03:42:58.836Z,7.34
2023-12-23T03:45:02.803Z,7.35
2023-12-23T03:47:06.738Z,7.38
2023-12-23T03:49:10.463Z,7.39
2023-12-23T03:51:17.733Z,7.41
2023-12-23T03:53:20.712Z,7.43
2023-12-23T03:55:32.666Z,7.47
2023-12-23T03:57:35.215Z,7.50
2023-12-23T03:59:40.446Z,7.51
2023-12-23T04:01:44.393Z,7.53
2023-12-23T04:03:48.262Z,7.54
2023-12-23T04:05:51.237Z,7.53
2023-12-23T04:07:53.834Z,7.51
2023-12-23T04:09:56.481Z,7.48
2023-12-23T04:11:59.199Z,7.44
2023-12-23T04:14:02.479Z,7.44
2023-12-23T04:16:05.895Z,7.42
2023-12-23T04:18:09.239Z,7.40
2023-12-23T04:20:12.334Z,7.36
2023-12-23T04:22:15.108Z,7.34
2023-12-23T04:24:20.342Z,7.34
2023-12-23T04:26:23.691Z,7.34
2023-12-23T04:28:26.936Z,7.34
2023-12-23T04:30:29.981Z,7.33
2023-12-23T04:32:32.751Z,7.29
2023-12-23T04:34:39.751Z,7.27
2023-12-23T04:36:42.699Z,7.27
2023-12-23T04:38:45.535Z,7.30
2023-12-23T04:40:48.129Z,7.33
2023-12-23T04:42:52.361Z,7.35
2023-12-23T04:44:55.504Z,7.32
2023-12-23T04:46:58.411Z,7.28
2023-12-23T04:49:01.208Z,7.28
2023-12-23T04:51:04.663Z,7.28
2023-12-23T04:53:07.595Z,7.31
2023-12-23T04:55:11.038Z,7.33
2023-12-23T04:57:14.075Z,7.34
2023-12-23T04:59:17.425Z,7.36
2023-12-23T05:01:20.607Z,7.36
2023-12-23T05:05:26.861Z,7.34
2023-12-23T05:07:29.432Z,7.33
2023-12-23T05:09:32.032Z,7.35
2023-12-23T05:11:35.405Z,7.38
2023-12-23T05:15:43.436Z,7.41
2023-12-23T05:17:47.739Z,7.43
2023-12-23T05:19:50.778Z,7.42
2023-12-23T05:21:56.458Z,7.38
2023-12-23T05:24:02.590Z,7.38
2023-12-23T05:28:08.595Z,7.43
2023-12-23T05:30:13.250Z,7.44
2023-12-23T05:32:16.439Z,7.46
2023-12-23T05:34:19.544Z,7.44
2023-12-23T05:36:23.971Z,7.46
2023-12-23T05:38:28.644Z,7.46
2023-12-23T05:40:31.254Z,7.48
2023-12-23T05:42:36.150Z,7.52
2023-12-23T05:44:40.129Z,7.55
2023-12-23T05:46:43.261Z,7.54
2023-12-23T05:48:47.218Z,7.53
2023-12-23T05:50:49.987Z,7.51
2023-12-23T05:52:53.107Z,7.49
2023-12-23T05:54:55.977Z,7.49
2023-12-23T05:56:58.516Z,7.50
2023-12-23T05:59:01.271Z,7.49
2023-12-23T06:01:05.952Z,7.47
2023-12-23T06:03:08.833Z,7.44
2023-12-23T06:05:11.580Z,7.40
2023-12-23T06:07:15.881Z,7.39
2023-12-23T06:09:18.725Z,7.41
2023-12-23T06:11:21.542Z,7.40
2023-12-23T06:13:26.404Z,7.40
2023-12-23T06:15:29.004Z,7.39
2023-12-23T06:17:33.943Z,7.42
2023-12-23T06:19:36.456Z,7.45
2023-12-23T06:21:40.477Z,7.49
2023-12-23T06:23:43.232Z,7.52
2023-12-23T06:25:45.857Z,7.52
2023-12-23T06:27:48.557Z,7.53
2023-12-23T06:29:51.387Z,7.54
2023-12-23T06:31:59.327Z,7.56
2023-12-23T06:34:02.852Z,7.56
2023-12-23T06:36:11.087Z,7.60
2023-12-23T06:38:17.072Z,7.62
2023-12-23T06:40:27.328Z,7.66
2023-12-23T06:42:30.052Z,7.69
2023-12-23T06:44:34.713Z,7.70
2023-12-23T06:46:37.476Z,7.69
2023-12-23T06:48:40.462Z,7.72
2023-12-23T06:50:43.359Z,7.74
2023-12-23T06:52:45.990Z,7.73
2023-12-23T06:56:51.428Z,7.68
2023-12-23T06:58:57.756Z,7.60
2023-12-23T07:01:04.786Z,7.56
2023-12-23T07:03:08.398Z,7.56
2023-12-23T07:05:12.989Z,7.60
2023-12-23T07:07:16.273Z,7.62
2023-12-23T07:09:18.910Z,7.61
2023-12-23T07:11:21.429Z,7.62
2023-12-23T07:13:24.092Z,7.61
2023-12-23T07:15:27.475Z,7.61
2023-12-23T07:17:38.456Z,7.62
2023-12-23T07:19:45.586Z,7.63
2023-12-23T07:21:54.218Z,7.62
2023-12-23T07:24:04.193Z,7.63
2023-12-23T07:26:10.712Z,7.68
2023-12-23T07:28:13.507Z,7.74
2023-12-23T07:30:16.213Z,7.75
2023-12-23T07:32:18.945Z,7.77
2023-12-23T07:34:21.746Z,7.76
2023-12-23T07:36:24.529Z,7.75
2023-12-23T07:38:27.164Z,7.74
2023-12-23T07:40:31.165Z,7.75
2023-12-23T07:42:34.674Z,7.77
2023-12-23T07:44:38.181Z,7.81
2023-12-23T07:46:40.962Z,7.84
2023-12-23T07:48:44.033Z,7.85
2023-12-23T07:50:46.681Z,7.86
2023-12-23T07:52:50.492Z,7.91
2023-12-23T07:54:53.361Z,7.95
2023-12-23T07:56:56.072Z,7.98
2023-12-23T07:58:58.975Z,7.99
2023-12-23T08:01:02.694Z,8.00
2023-12-23T08:03:06.820Z,8.01
2023-12-23T08:05:11.819Z,8.03
2023-12-23T08:07:16.204Z,8.03
2023-12-23T08:09:20.024Z,8.05
2023-12-23T08:11:23.741Z,8.05
2023-12-23T08:13:28.593Z,8.07
2023-12-23T08:15:31.286Z,8.07
2023-12-23T08:17:33.985Z,8.10
2023-12-23T08:19:36.643Z,8.07
2023-12-23T08:21:39.511Z,8.04
2023-12-23T08:23:42.473Z,8.05
2023-12-23T08:25:45.364Z,8.09
2023-12-23T08:27:48.226Z,8.11
2023-12-23T08:29:50.687Z,8.14
2023-12-23T08:31:53.516Z,8.15
2023-12-23T08:33:56.502Z,8.16
2023-12-23T08:35:59.870Z,8.18
2023-12-23T08:38:02.584Z,8.20
2023-12-23T08:40:06.193Z,8.20
2023-12-23T08:42:12.249Z,8.20
2023-12-23T08:44:14.923Z,8.21
2023-12-23T08:46:17.768Z,8.23
2023-12-23T08:48:20.528Z,8.26
2023-12-23T08:50:23.864Z,8.29
2023-12-23T08:52:27.163Z,8.31
2023-12-23T08:54:29.882Z,8.32
2023-12-23T08:56:32.806Z,8.32
2023-12-23T08:58:35.299Z,8.33
2023-12-23T09:00:38.600Z,8.32
2023-12-23T09:02:41.147Z,8.36
2023-12-23T09:04:43.845Z,8.39
2023-12-23T09:06:47.512Z,8.42
2023-12-23T09:08:52.588Z,8.43
2023-12-23T09:10:55.357Z,8.45
2023-12-23T09:12:57.969Z,8.48
2023-12-23T09:17:02.460Z,8.50
2023-12-23T09:19:06.494Z,8.51
2023-12-23T09:21:09.974Z,8.53
2023-12-23T09:23:12.497Z,8.53
2023-12-23T09:25:15.255Z,8.53
2023-12-23T09:27:17.947Z,8.54
2023-12-23T09:29:20.651Z,8.52
2023-12-23T09:31:23.300Z,8.49
2023-12-23T09:33:26.229Z,8.46
2023-12-23T09:35:29.062Z,8.42
2023-12-23T09:37:43.858Z,8.41
2023-12-23T09:39:46.479Z,8.43
2023-12-23T09:41:49.871Z,8.49
2023-12-23T09:43:53.817Z,8.53
2023-12-23T09:45:59.363Z,8.54
2023-12-23T09:48:02.421Z,8.57
2023-12-23T09:50:05.396Z,8.59
2023-12-23T09:52:08.108Z,8.59
2023-12-23T09:54:16.951Z,8.59
2023-12-23T09:56:19.688Z,8.64
2023-12-23T09:58:23.172Z,8.65
2023-12-23T10:00:26.225Z,8.65
2023-12-23T10:02:28.943Z,8.63
2023-12-23T10:04:31.781Z,8.62
2023-12-23T10:06:34.793Z,8.62
2023-12-23T10:08:37.422Z,8.63
2023-12-23T10:10:41.300Z,8.62
2023-12-23T10:12:44.624Z,8.61
2023-12-23T10:14:49.425Z,8.62
2023-12-23T10:16:54.106Z,8.65
2023-12-23T10:18:57.633Z,8.65
2023-12-23T10:21:00.320Z,8.67
2023-12-23T10:23:02.909Z,8.68
2023-12-23T10:25:05.844Z,8.67
2023-12-23T10:27:08.403Z,8.66
2023-12-23T10:29:11.455Z,8.65
2023-12-23T10:31:14.714Z,8.67
2023-12-23T10:33:19.025Z,8.71
2023-12-23T10:35:22.286Z,8.75
2023-12-23T10:37:26.192Z,8.74
2023-12-23T10:39:32.091Z,8.73
2023-12-23T10:41:52.409Z,8.71
2023-12-23T10:43:56.482Z,8.69
2023-12-23T10:46:00.449Z,8.69
2023-12-23T10:48:05.403Z,8.70
2023-12-23T10:50:10.705Z,8.70
2023-12-23T10:52:15.237Z,8.70
2023-12-23T10:54:19.967Z,8.71
2023-12-23T10:56:26.397Z,8.73
2023-12-23T10:58:31.314Z,8.70
2023-12-23T11:00:34.271Z,8.67
2023-12-23T11:02:39.096Z,8.64
2023-12-23T11:04:48.596Z,8.63
2023-12-23T11:06:55.002Z,8.64
2023-12-23T11:09:03.198Z,8.67
2023-12-23T11:11:06.202Z,8.68
2023-12-23T11:13:08.916Z,8.70
2023-12-23T11:15:11.559Z,8.72
2023-12-23T11:17:28.017Z,8.71
2023-12-23T11:19:30.814Z,8.70
2023-12-23T11:21:36.231Z,8.69
2023-12-23T11:23:39.275Z,8.72
2023-12-23T11:25:43.747Z,8.75
2023-12-23T11:27:48.262Z,8.81
2023-12-23T11:29:51.664Z,8.81
2023-12-23T11:32:10.398Z,8.80
2023-12-23T11:34:18.127Z,8.79
2023-12-23T11:36:21.013Z,8.80
2023-12-23T11:38:27.991Z,8.79
2023-12-23T11:40:34.424Z,8.75
2023-12-23T11:42:38.285Z,8.76
2023-12-23T11:44:42.442Z,8.80
2023-12-23T11:46:45.599Z,8.84
2023-12-23T11:48:49.161Z,8.85
2023-12-23T11:50:57.449Z,8.86
2023-12-23T11:53:01.017Z,8.84
2023-12-23T11:55:04.784Z,8.82
2023-12-23T11:57:07.457Z,8.82
2023-12-23T11:59:10.216Z,8.83
2023-12-23T12:01:13.136Z,8.85
2023-12-23T12:03:17.174Z,8.88
2023-12-23T12:05:23.338Z,8.89
2023-12-23T12:07:26.215Z,8.88
2023-12-23T12:09:29.288Z,8.85
2023-12-23T12:11:32.473Z,8.83
2023-12-23T12:13:39.483Z,8.80
2023-12-23T12:15:44.011Z,8.82
2023-12-23T12:17:46.756Z,8.81
2023-12-23T12:19:49.578Z,8.83
2023-12-23T12:21:52.174Z,8.88
2023-12-23T12:23:59.637Z,8.89
2023-12-23T12:26:02.343Z,8.90
2023-12-23T12:28:06.720Z,8.92
2023-12-23T12:30:11.344Z,8.96
2023-12-23T12:32:16.996Z,8.96
2023-12-23T12:34:22.239Z,8.97
2023-12-23T12:36:25.726Z,9.00
2023-12-23T12:38:28.955Z,9.02
2023-12-23T12:40:36.292Z,9.04
2023-12-23T12:42:44.766Z,9.04
2023-12-23T12:44:49.910Z,9.05
2023-12-23T12:46:55.530Z,9.05
2023-12-23T12:48:58.190Z,9.04
2023-12-23T12:51:01.399Z,9.01
2023-12-23T12:53:04.328Z,9.00
2023-12-23T12:55:07.887Z,9.03
2023-12-23T12:57:11.471Z,9.04
2023-12-23T12:59:19.184Z,9.03
2023-12-23T13:01:22.800Z,9.01
2023-12-23T13:03:25.609Z,9.03
2023-12-23T13:05:30.754Z,9.04
2023-12-23T13:07:33.891Z,9.06
2023-12-23T13:09:36.422Z,9.05
2023-12-23T13:11:39.237Z,9.04
2023-12-23T13:13:41.905Z,9.06
2023-12-23T13:15:44.701Z,9.09
2023-12-23T13:17:47.473Z,9.10
2023-12-23T13:19:50.388Z,9.08
2023-12-23T13:21:53.241Z,9.09
2023-12-23T13:23:55.909Z,9.11
2023-12-23T13:25:58.501Z,9.11
2023-12-23T13:28:01.048Z,9.09
2023-12-23T13:30:05.052Z,9.08
2023-12-23T13:32:09.000Z,9.12
2023-12-23T13:34:12.452Z,9.12
2023-12-23T13:36:15.479Z,9.13
2023-12-23T13:38:20.489Z,9.12
2023-12-23T13:40:25.786Z,9.09
2023-12-23T13:42:28.509Z,9.09
2023-12-23T13:44:36.134Z,9.12
2023-12-23T13:46:39.419Z,9.13
2023-12-23T13:48:42.241Z,9.11
2023-12-23T13:50:45.229Z,9.06
2023-12-23T13:52:49.601Z,9.07
2023-12-23T13:54:52.294Z,9.12
2023-12-23T13:56:55.070Z,9.13
2023-12-23T13:58:57.789Z,9.13
2023-12-23T14:01:00.703Z,9.14
2023-12-23T14:03:04.032Z,9.14
2023-12-23T14:05:08.186Z,9.14
2023-12-23T14:07:12.358Z,9.11
2023-12-23T14:09:16.714Z,9.12
2023-12-23T14:11:21.195Z,9.11
2023-12-23T14:13:25.637Z,9.11
2023-12-23T14:15:28.141Z,9.12
2023-12-23T14:17:33.626Z,9.13
2023-12-23T14:19:36.759Z,9.14
2023-12-23T14:23:40.896Z,9.15
2023-12-23T14:25:43.842Z,9.18
2023-12-23T14:27:46.483Z,9.18
2023-12-23T14:29:50.525Z,9.17
2023-12-23T14:31:53.153Z,9.16
2023-12-23T14:33:57.381Z,9.15
2023-12-23T14:36:02.114Z,9.11
2023-12-23T14:38:06.327Z,9.09
2023-12-23T14:40:09.942Z,9.10
2023-12-23T14:42:14.626Z,9.13
2023-12-23T14:44:17.332Z,9.12
2023-12-23T14:46:20.206Z,9.12
2023-12-23T14:48:23.256Z,9.16
2023-12-23T14:50:26.089Z,9.21
2023-12-23T14:52:28.844Z,9.25
2023-12-23T14:56:33.058Z,9.25
2023-12-23T14:58:36.024Z,9.23
2023-12-23T15:00:38.816Z,9.21
2023-12-23T15:02:41.550Z,9.20
2023-12-23T15:04:44.339Z,9.22
2023-12-23T15:06:47.085Z,9.24
2023-12-23T15:08:49.833Z,9.27
2023-12-23T15:10:52.665Z,9.29
2023-12-23T15:12:56.375Z,9.29
2023-12-23T15:14:58.873Z,9.29
2023-12-23T15:17:02.510Z,9.29
2023-12-23T15:19:05.335Z,9.29
2023-12-23T15:21:08.113Z,9.27
2023-12-23T15:23:10.620Z,9.26
2023-12-23T15:25:13.369Z,9.27
2023-12-23T15:27:17.012Z,9.28
2023-12-23T15:29:19.567Z,9.28
2023-12-23T15:31:22.714Z,9.27
2023-12-23T15:33:25.384Z,9.23
2023-12-23T15:35:28.230Z,9.21
2023-12-23T15:37:31.011Z,9.21
2023-12-23T15:39:33.581Z,9.21
2023-12-23T15:41:36.464Z,9.22
2023-12-23T15:43:39.160Z,9.23
2023-12-23T15:45:41.793Z,9.21
2023-12-23T15:47:47.255Z,9.20
2023-12-23T15:49:52.167Z,9.21
2023-12-23T15:51:57.764Z,9.18
2023-12-23T15:54:00.827Z,9.17
2023-12-23T15:56:04.233Z,9.17
2023-12-23T15:58:07.526Z,9.14
2023-12-23T16:00:11.225Z,9.11
2023-12-23T16:02:17.754Z,9.14
2023-12-23T16:04:21.488Z,9.16
2023-12-23T16:06:23.995Z,9.17
2023-12-23T16:10:28.272Z,9.17
2023-12-23T16:12:32.046Z,9.16
2023-12-23T16:14:36.527Z,9.12
2023-12-23T16:16:41.142Z,9.11
2023-12-23T16:18:44.936Z,9.13
2023-12-23T16:20:47.768Z,9.15
2023-12-23T16:22:53.329Z,9.16
2023-12-23T16:24:56.139Z,9.16
2023-12-23T16:26:58.657Z,9.15
2023-12-23T16:29:02.046Z,9.15
2023-12-23T16:31:06.390Z,9.16
2023-12-23T16:33:10.336Z,9.16
2023-12-23T16:35:13.011Z,9.14
2023-12-23T16:37:20.984Z,9.14
2023-12-23T16:39:25.911Z,9.16
2023-12-23T16:41:28.740Z,9.17
2023-12-23T16:43:31.638Z,9.17
2023-12-23T16:45:34.217Z,9.15
2023-12-23T16:47:36.908Z,9.12
2023-12-23T16:49:41.700Z,9.11
2023-12-23T16:51:45.759Z,9.09
2023-12-23T16:53:48.570Z,9.07
2023-12-23T16:55:51.089Z,9.08
2023-12-23T16:57:54.584Z,9.08
2023-12-23T16:59:58.442Z,9.11
2023-12-23T17:02:01.165Z,9.11
2023-12-23T17:04:06.105Z,9.12
2023-12-23T17:06:09.236Z,9.13
2023-12-23T17:08:13.432Z,9.12
2023-12-23T17:10:17.140Z,9.13
2023-12-23T17:12:19.772Z,9.13
2023-12-23T17:14:22.599Z,9.12
2023-12-23T17:16:25.142Z,9.13
2023-12-23T17:18:29.841Z,9.11
2023-12-23T17:20:32.713Z,9.09
2023-12-23T17:22:36.453Z,9.06
2023-12-23T17:24:40.613Z,9.06
2023-12-23T17:26:43.400Z,9.06
2023-12-23T17:28:47.108Z,9.08
2023-12-23T17:30:49.838Z,9.07
2023-12-23T17:32:52.978Z,9.08
2023-12-23T17:34:56.206Z,9.12
2023-12-23T17:37:01.232Z,9.14
2023-12-23T17:39:05.951Z,9.11
2023-12-23T17:41:08.657Z,9.12
2023-12-23T17:43:12.014Z,9.13
2023-12-23T17:45:14.670Z,9.09
2023-12-23T17:47:17.345Z,9.06
2023-12-23T17:49:20.457Z,9.08
2023-12-23T17:51:25.034Z,9.09
2023-12-23T17:53:27.729Z,9.07
2023-12-23T17:55:30.391Z,9.07
2023-12-23T17:57:33.281Z,9.07
2023-12-23T17:59:36.006Z,9.11
2023-12-23T18:01:39.261Z,9.11
2023-12-23T18:03:42.215Z,9.13
2023-12-23T18:05:48.622Z,9.10
2023-12-23T18:07:53.236Z,9.06
2023-12-23T18:09:57.085Z,9.05
2023-12-23T18:11:59.891Z,9.07
2023-12-23T18:14:02.940Z,9.07
2023-12-23T18:16:05.688Z,9.10
2023-12-23T18:18:09.571Z,9.11
2023-12-23T18:20:13.791Z,9.10
2023-12-23T18:22:16.459Z,9.07
2023-12-23T18:24:21.017Z,9.04
2023-12-23T18:26:26.295Z,9.03
2023-12-23T18:28:29.874Z,9.02
2023-12-23T18:30:32.601Z,9.02
2023-12-23T18:32:35.476Z,9.03
2023-12-23T18:34:38.735Z,9.00
2023-12-23T18:36:42.290Z,9.00
2023-12-23T18:38:44.805Z,8.98
2023-12-23T18:42:51.976Z,9.01
2023-12-23T18:44:55.800Z,9.02
2023-12-23T18:46:59.254Z,9.06
2023-12-23T18:49:02.251Z,9.07
2023-12-23T18:51:07.261Z,9.05
2023-12-23T18:53:09.870Z,9.05
2023-12-23T18:55:12.473Z,9.07
2023-12-23T18:57:17.929Z,9.05
2023-12-23T18:59:21.010Z,9.05
2023-12-23T19:01:23.781Z,9.04
2023-12-23T19:03:28.722Z,9.03
2023-12-23T19:05:31.511Z,9.02
2023-12-23T19:07:35.569Z,8.98
2023-12-23T19:09:38.780Z,8.98
2023-12-23T19:11:43.153Z,8.96
2023-12-23T19:13:47.380Z,8.99
2023-12-23T19:15:54.071Z,9.03
2023-12-23T19:17:59.453Z,9.01
2023-12-23T19:20:04.225Z,9.01
2023-12-23T19:22:07.686Z,9.05
2023-12-23T19:24:10.562Z,9.05
2023-12-23T19:26:13.106Z,9.05
2023-12-23T19:28:18.950Z,9.06
2023-12-23T19:30:22.252Z,9.06
2023-12-23T19:32:25.431Z,9.10
2023-12-23T19:34:28.102Z,9.15
2023-12-23T19:36:31.594Z,9.17
2023-12-23T19:38:34.272Z,9.19
2023-12-23T19:40:36.801Z,9.17
2023-12-23T19:42:40.536Z,9.17
2023-12-23T19:44:43.679Z,9.21
2023-12-23T19:46:47.594Z,9.23
2023-12-23T19:48:50.387Z,9.24
2023-12-23T19:50:53.206Z,9.24
2023-12-23T19:58:30.430Z,9.62
2023-12-23T20:00:33.374Z,9.57
2023-12-23T20:02:35.975Z,9.53
2023-12-23T20:04:38.683Z,9.45
2023-12-23T20:06:42.093Z,9.41
2023-12-23T20:08:44.742Z,9.39
2023-12-23T20:10:47.714Z,9.41
2023-12-23T20:13:01.595Z,9.40
2023-12-23T20:15:14.508Z,9.42
2023-12-23T20:17:17.636Z,9.44
2023-12-23T20:19:20.570Z,9.38
2023-12-23T20:21:24.214Z,9.32
2023-12-23T20:23:26.900Z,9.26
2023-12-23T20:25:30.280Z,9.23
2023-12-23T20:27:32.928Z,9.21
2023-12-23T20:31:38.443Z,9.24
2023-12-23T20:33:41.160Z,9.28
2023-12-23T20:35:43.801Z,9.32
2023-12-23T20:37:46.327Z,9.35
2023-12-23T20:39:48.857Z,9.36
2023-12-23T20:41:51.447Z,9.37
2023-12-23T20:43:56.320Z,9.35
2023-12-23T20:46:04.186Z,9.34
2023-12-23T20:48:07.684Z,9.34
2023-12-23T20:50:10.591Z,9.33
2023-12-23T20:52:13.130Z,9.33
2023-12-23T20:54:15.995Z,9.36
2023-12-23T20:56:22.768Z,9.36
2023-12-23T20:58:25.437Z,9.37
2023-12-23T21:02:32.356Z,9.44
2023-12-23T21:04:38.859Z,9.42
2023-12-23T21:06:41.489Z,9.40
2023-12-23T21:08:44.071Z,9.34
2023-12-23T21:10:46.615Z,9.32
2023-12-23T21:12:49.400Z,9.31
2023-12-23T21:14:52.110Z,9.29
2023-12-23T21:16:55.286Z,9.29
2023-12-23T21:18:58.969Z,9.28
2023-12-23T21:21:02.118Z,9.30
2023-12-23T21:23:04.937Z,9.31
2023-12-23T21:25:08.425Z,9.31
2023-12-23T21:27:11.048Z,9.32
2023-12-23T21:29:13.846Z,9.32
2023-12-23T21:31:17.178Z,9.30
2023-12-23T21:33:19.876Z,9.32
2023-12-23T21:35:22.950Z,9.29
2023-12-23T21:37:26.774Z,9.30
2023-12-23T21:39:29.369Z,9.33
2023-12-23T21:41:32.100Z,9.36
2023-12-23T21:43:37.862Z,9.33
2023-12-23T21:45:41.673Z,9.32
2023-12-23T21:47:48.454Z,9.36
2023-12-23T21:49:51.487Z,9.39
2023-12-23T21:51:54.412Z,9.40
2023-12-23T21:53:57.196Z,9.39
2023-12-23T21:56:02.718Z,9.38
2023-12-23T21:58:09.489Z,9.39
2023-12-23T22:00:13.682Z,9.39
2023-12-23T22:02:19.594Z,9.42
2023-12-23T22:04:22.270Z,9.46
2023-12-23T22:06:26.428Z,9.47
2023-12-23T22:08:29.895Z,9.46
2023-12-23T22:10:32.585Z,9.45
2023-12-23T22:12:35.770Z,9.44
2023-12-23T22:14:38.874Z,9.45
2023-12-23T22:16:44.398Z,9.42
2023-12-23T22:18:51.515Z,9.39
2023-12-23T22:20:54.556Z,9.37
2023-12-23T22:22:57.448Z,9.38
2023-12-23T22:25:00.287Z,9.44
2023-12-23T22:27:04.768Z,9.47
2023-12-23T22:29:08.019Z,9.46
2023-12-23T22:31:11.185Z,9.44
2023-12-23T22:33:14.169Z,9.46
2023-12-23T22:35:17.707Z,9.48
2023-12-23T22:37:22.208Z,9.47
2023-12-23T22:39:25.530Z,9.48
2023-12-23T22:41:32.356Z,9.50
2023-12-23T22:43:35.826Z,9.54
2023-12-23T22:45:38.707Z,9.58
2023-12-23T22:49:47.484Z,9.58
2023-12-23T22:51:50.314Z,9.57
2023-12-23T22:53:53.006Z,9.55
2023-12-23T22:55:55.701Z,9.53
2023-12-23T22:57:58.412Z,9.53
2023-12-23T23:04:24.205Z,9.81
2023-12-23T23:06:27.141Z,9.77
2023-12-23T23:08:30.019Z,9.76
2023-12-23T23:10:34.507Z,9.73
2023-12-23T23:12:37.182Z,9.69
2023-12-23T23:14:41.107Z,9.66
2023-12-23T23:16:43.757Z,9.67
2023-12-23T23:18:50.791Z,9.67
2023-12-23T23:20:55.191Z,9.66
2023-12-23T23:22:58.442Z,9.67
2023-12-23T23:25:01.770Z,9.69
2023-12-23T23:27:04.517Z,9.67
2023-12-23T23:29:07.402Z,9.66
2023-12-23T23:31:14.348Z,9.65
2023-12-23T23:33:17.237Z,9.63
2023-12-23T23:35:20.566Z,9.61
2023-12-23T23:37:23.919Z,9.60
2023-12-23T23:39:26.813Z,9.61
2023-12-23T23:41:29.379Z,9.63
2023-12-23T23:43:33.041Z,9.60
2023-12-23T23:45:35.736Z,9.61
2023-12-23T23:47:38.916Z,9.64
2023-12-23T23:51:49.015Z,9.62
2023-12-23T23:53:52.449Z,9.61
2023-12-23T23:55:55.295Z,9.61
2023-12-23T23:57:58.649Z,9.61
